Time;durP1;ratioP1;P1;durP2;ratioP2;P2;SDS_P1;SDS_P2;PMS_P1;PMS_P2;Temp;Humidity;BMP_temperature;BMP_pressure;BME280_temperature;BME280_humidity;BME280_pressure;Samples;Min_cycle;Max_cycle;Signal;HPM_P1;HPM_P2
2023/09/27 00:01:56;;;;;;;4.72;4.15;;;12.70;99.90;;;12.35;100.00;97670.16;5001808;28;20056;-38
2023/09/27 00:04:21;;;;;;;5.80;4.13;;;12.70;99.90;;;12.37;100.00;97684.19;5006627;28;20033;-37
2023/09/27 00:06:47;;;;;;;5.35;3.65;;;12.70;99.90;;;12.33;100.00;97685.25;4996399;28;20095;-39
2023/09/27 00:09:14;;;;;;;6.15;3.47;;;12.60;99.90;;;12.31;100.00;97683.56;5001355;28;20184;-38
2023/09/27 00:11:40;;;;;;;7.32;3.90;;;12.60;99.90;;;12.26;100.00;97678.47;5011112;28;20420;-38
2023/09/27 00:14:06;;;;;;;5.57;4.18;;;12.50;99.90;;;12.23;100.00;97686.50;5007904;28;20029;-37
2023/09/27 00:16:32;;;;;;;7.72;4.00;;;12.50;99.90;;;12.20;100.00;97681.34;5006730;28;20040;-41
2023/09/27 00:18:57;;;;;;;6.18;4.35;;;12.50;99.90;;;12.15;100.00;97678.88;5011718;28;20088;-38
2023/09/27 00:21:23;;;;;;;5.13;4.03;;;12.50;99.90;;;12.12;100.00;97678.16;5014756;28;20037;-38
2023/09/27 00:23:49;;;;;;;6.95;4.50;;;12.40;99.90;;;12.11;100.00;97687.84;5010987;28;20139;-37
2023/09/27 00:26:14;;;;;;;6.43;4.45;;;12.40;99.90;;;12.11;100.00;97694.91;5006908;28;20754;-38
2023/09/27 00:28:40;;;;;;;7.05;4.40;;;12.40;99.90;;;12.12;100.00;97689.56;5016386;28;20052;-37
2023/09/27 00:31:06;;;;;;;5.90;4.18;;;12.40;99.90;;;12.13;100.00;97686.03;5011316;28;20041;-38
2023/09/27 00:33:31;;;;;;;5.22;4.25;;;12.40;99.90;;;12.08;100.00;97673.88;5016788;28;20037;-38
2023/09/27 00:35:58;;;;;;;5.35;3.92;;;12.40;99.90;;;12.03;100.00;97688.13;5013658;28;20053;-38
2023/09/27 00:38:24;;;;;;;5.30;4.10;;;12.30;99.90;;;11.94;100.00;97675.28;5013045;28;20037;-38
2023/09/27 00:40:50;;;;;;;5.03;4.18;;;12.40;99.90;;;11.97;100.00;97680.47;5014154;28;20044;-38
2023/09/27 00:43:45;;;;;;;7.18;4.55;;;12.30;99.90;;;11.87;100.00;97667.63;5009172;28;20498;-38
2023/09/27 00:46:14;;;;;;;8.98;5.20;;;12.20;99.90;;;11.84;100.00;97669.47;4987814;28;20041;-37
2023/09/27 00:48:41;;;;;;;7.25;5.07;;;12.20;99.90;;;11.79;100.00;97670.53;5010111;28;20044;-38
2023/09/27 00:51:07;;;;;;;10.23;6.00;;;12.10;99.90;;;11.74;100.00;97669.88;5007318;28;20025;-39
2023/09/27 00:53:34;;;;;;;7.97;5.32;;;12.10;99.90;;;11.63;100.00;97655.25;5011319;28;20225;-37
2023/09/27 00:56:01;;;;;;;7.60;5.70;;;12.10;99.90;;;11.57;100.00;97651.97;5007152;28;20025;-37
2023/09/27 00:58:30;;;;;;;7.70;5.35;;;12.00;99.90;;;11.65;100.00;97664.00;4994655;28;20163;-38
2023/09/27 01:00:58;;;;;;;7.57;5.00;;;12.00;99.90;;;11.63;100.00;97670.25;5008281;28;20033;-40
2023/09/27 01:03:24;;;;;;;6.40;4.70;;;12.00;99.90;;;11.62;100.00;97674.66;5008818;28;20034;-38
2023/09/27 01:05:49;;;;;;;6.47;5.30;;;12.00;99.90;;;11.59;100.00;97666.00;5003477;28;20037;-39
2023/09/27 01:08:15;;;;;;;4.78;4.20;;;11.90;99.90;;;11.58;100.00;97672.22;4995752;28;20041;-38
2023/09/27 01:10:41;;;;;;;5.82;4.75;;;11.90;99.90;;;11.58;100.00;97672.22;5006409;28;23370;-39
2023/09/27 01:13:07;;;;;;;5.93;4.78;;;11.90;99.90;;;11.58;100.00;97674.84;5006942;28;20021;-37
2023/09/27 01:15:33;;;;;;;10.80;4.28;;;11.90;99.90;;;11.59;100.00;97668.63;5008361;28;20044;-38
2023/09/27 01:18:01;;;;;;;5.68;4.13;;;11.90;99.90;;;11.59;100.00;97668.63;5009237;28;20493;-38
2023/09/27 01:20:29;;;;;;;6.00;4.50;;;11.90;99.90;;;11.60;100.00;97675.66;4994077;28;20149;-38
2023/09/27 01:22:59;;;;;;;8.05;4.85;;;11.90;99.90;;;11.57;100.00;97676.59;5004957;28;20140;-38
2023/09/27 01:25:37;;;;;;;6.78;4.50;;;11.90;99.90;;;11.61;100.00;97677.34;5008458;28;20084;-37
2023/09/27 01:28:08;;;;;;;4.82;4.22;;;11.90;99.90;;;11.63;100.00;97676.41;5003020;28;20481;-38
2023/09/27 01:30:36;;;;;;;6.27;4.80;;;11.90;99.90;;;11.63;100.00;97671.13;5007740;28;20025;-39
2023/09/27 01:33:05;;;;;;;5.30;4.40;;;12.00;99.90;;;11.64;100.00;97667.53;5003123;28;20316;-39
2023/09/27 01:35:42;;;;;;;5.82;4.13;;;12.00;99.90;;;11.60;100.00;97665.94;5005112;28;20665;-39
2023/09/27 01:38:11;;;;;;;6.55;4.03;;;12.00;99.90;;;11.67;100.00;97682.44;5003332;28;20397;-38
2023/09/27 01:40:43;;;;;;;8.07;4.53;;;12.00;99.90;;;11.68;100.00;97681.50;5007952;28;20132;-38
2023/09/27 01:43:09;;;;;;;6.82;4.30;;;12.00;99.90;;;11.58;100.00;97665.13;5003942;28;20033;-39
2023/09/27 01:45:36;;;;;;;6.03;4.85;;;12.00;99.90;;;11.68;100.00;97683.28;5009790;28;20047;-38
2023/09/27 01:48:02;;;;;;;6.07;4.68;;;12.00;99.90;;;11.68;100.00;97683.28;5008712;28;20478;-38
2023/09/27 01:50:30;;;;;;;5.45;4.75;;;12.00;99.90;;;11.67;100.00;97687.72;5008131;28;20175;-39
2023/09/27 01:52:57;;;;;;;5.65;4.65;;;12.00;99.90;;;11.65;100.00;97685.13;4988046;28;20133;-41
2023/09/27 01:55:23;;;;;;;5.03;4.18;;;12.00;99.90;;;11.64;100.00;97679.91;5008478;28;20202;-37
2023/09/27 01:57:49;;;;;;;4.68;3.72;;;12.00;99.90;;;11.64;100.00;97679.91;5010048;28;20048;-39
2023/09/27 02:00:18;;;;;;;5.03;4.00;;;12.00;99.90;;;11.65;100.00;97681.63;5010740;28;20064;-39
2023/09/27 02:02:56;;;;;;;7.03;4.35;;;12.00;99.90;;;11.65;100.00;97686.91;5007610;28;20224;-38
2023/09/27 02:05:23;;;;;;;4.95;4.13;;;11.90;99.90;;;11.62;100.00;97681.72;5005310;28;21498;-41
2023/09/27 02:07:48;;;;;;;5.35;4.55;;;12.00;99.90;;;11.61;100.00;97691.44;4997506;28;20033;-40
2023/09/27 02:10:14;;;;;;;5.97;4.05;;;11.90;99.90;;;11.60;100.00;97692.34;5000268;28;20592;-38
2023/09/27 02:12:40;;;;;;;5.30;4.45;;;12.00;99.90;;;11.62;100.00;97700.22;5006475;28;20480;-38
2023/09/27 02:15:11;;;;;;;6.60;4.82;;;11.90;99.90;;;11.62;100.00;97697.59;5001688;28;20029;-38
2023/09/27 02:17:41;;;;;;;7.20;4.80;;;12.00;99.90;;;11.60;100.00;97700.28;5007319;28;20179;-38
2023/09/27 02:20:12;;;;;;;6.60;5.13;;;11.90;99.90;;;11.58;100.00;97701.25;5000899;28;20122;-38
2023/09/27 02:22:40;;;;;;;5.45;4.55;;;11.90;99.90;;;11.54;100.00;97697.88;4979079;28;20033;-39
2023/09/27 02:25:11;;;;;;;7.82;4.72;;;11.90;99.90;;;11.50;100.00;97698.88;5000400;28;20124;-39
2023/09/27 02:27:41;;;;;;;5.97;4.35;;;11.80;99.90;;;11.48;100.00;97686.66;5003695;28;20440;-39
2023/09/27 02:30:11;;;;;;;4.68;4.18;;;11.80;99.90;;;11.45;100.00;97685.00;5001245;28;21331;-39
2023/09/27 02:32:41;;;;;;;4.72;4.15;;;11.80;99.90;;;11.44;100.00;97685.91;5002509;28;20029;-40
2023/09/27 02:35:13;;;;;;;7.40;3.95;;;11.80;99.90;;;11.41;100.00;97686.00;5002146;28;20522;-39
2023/09/27 02:37:41;;;;;;;7.63;4.47;;;11.70;99.90;;;11.39;100.00;97693.13;4998386;28;20258;-39
2023/09/27 02:40:14;;;;;;;4.68;4.10;;;11.70;99.90;;;11.38;100.00;97694.06;4997058;28;20350;-39
2023/09/27 02:42:44;;;;;;;4.97;4.35;;;11.70;99.90;;;11.36;100.00;97677.38;5000298;28;20301;-39
2023/09/27 02:45:11;;;;;;;5.47;4.60;;;11.70;99.90;;;11.33;100.00;97677.50;5000942;28;20076;-40
2023/09/27 02:47:39;;;;;;;7.72;4.50;;;11.70;99.90;;;11.31;100.00;97671.44;5005715;28;20670;-38
2023/09/27 02:50:08;;;;;;;5.40;4.03;;;11.70;99.90;;;11.29;100.00;97671.47;4997135;28;20040;-40
2023/09/27 02:52:34;;;;;;;5.18;4.38;;;11.70;99.90;;;11.28;100.00;97678.50;4993511;28;20033;-39
2023/09/27 02:55:00;;;;;;;5.30;4.50;;;11.60;99.90;;;11.25;100.00;97686.56;4996817;28;20413;-38
2023/09/27 02:57:25;;;;;;;8.30;4.30;;;11.60;99.90;;;11.23;100.00;97687.53;4989591;28;20037;-41
2023/09/27 02:59:51;;;;;;;5.10;4.40;;;11.50;99.90;;;11.19;100.00;97676.19;5009655;28;20046;-39
2023/09/27 03:02:17;;;;;;;4.55;4.00;;;11.50;99.90;;;11.17;100.00;97677.19;5004424;28;20040;-38
2023/09/27 03:04:42;;;;;;;5.53;4.18;;;11.50;99.90;;;11.14;100.00;97666.72;5002429;28;20061;-40
2023/09/27 03:07:08;;;;;;;6.03;4.32;;;11.50;99.90;;;11.12;100.00;97664.13;5002842;28;20037;-39
2023/09/27 03:09:36;;;;;;;5.05;3.90;;;11.50;99.90;;;11.10;100.00;97673.88;4993935;28;20041;-39
2023/09/27 03:12:03;;;;;;;5.22;3.90;;;11.40;99.90;;;11.11;100.00;97674.75;5001395;28;20025;-38
2023/09/27 03:14:29;;;;;;;5.20;4.03;;;11.40;99.90;;;11.10;100.00;97667.75;5003108;28;20038;-37
2023/09/27 03:16:54;;;;;;;5.25;3.83;;;11.40;99.90;;;11.08;100.00;97668.66;5002626;28;20512;-38
2023/09/27 03:19:23;;;;;;;5.03;3.67;;;11.40;99.90;;;11.07;100.00;97679.25;5006238;28;20116;-38
2023/09/27 03:21:49;;;;;;;6.45;4.40;;;11.40;99.90;;;11.02;100.00;97679.44;5007817;28;20039;-38
2023/09/27 03:24:15;;;;;;;6.05;4.47;;;11.30;99.90;;;10.96;100.00;97681.41;5007417;28;20053;-38
2023/09/27 03:26:40;;;;;;;5.30;3.78;;;11.30;99.90;;;10.93;100.00;97674.47;5010458;28;20033;-39
2023/09/27 03:29:06;;;;;;;4.47;3.55;;;11.30;99.90;;;10.92;100.00;97674.53;5002236;28;20348;-38
2023/09/27 03:31:32;;;;;;;4.85;3.70;;;11.30;99.90;;;10.88;100.00;97681.69;5005704;28;20036;-38
2023/09/27 03:33:58;;;;;;;5.45;4.22;;;11.20;99.90;;;10.82;100.00;97672.22;5005467;28;20026;-38
2023/09/27 03:36:24;;;;;;;4.38;3.97;;;11.20;99.90;;;10.80;100.00;97668.75;4989271;28;20032;-39
2023/09/27 03:38:49;;;;;;;4.93;4.05;;;11.10;99.90;;;10.78;100.00;97673.19;5010272;28;20033;-39
2023/09/27 03:41:16;;;;;;;5.07;4.38;;;11.10;99.90;;;10.78;100.00;97669.72;5009286;28;20072;-40
2023/09/27 03:43:41;;;;;;;6.80;4.57;;;11.10;99.90;;;10.77;100.00;97670.63;5010333;28;20048;-39
2023/09/27 03:46:07;;;;;;;5.65;4.32;;;11.10;99.90;;;10.76;100.00;97669.75;5010005;28;20029;-39
2023/09/27 03:48:33;;;;;;;5.95;4.85;;;11.10;99.90;;;10.78;100.00;97670.56;5006249;28;20041;-38
2023/09/27 03:50:59;;;;;;;6.85;4.38;;;11.20;99.90;;;10.72;100.00;97657.59;5003537;28;20034;-40
2023/09/27 03:53:25;;;;;;;7.55;4.72;;;11.20;99.90;;;10.81;100.00;97675.75;5006191;28;22041;-38
2023/09/27 03:55:51;;;;;;;6.03;4.70;;;11.20;99.90;;;10.78;100.00;97680.25;5003137;28;20030;-38
2023/09/27 03:58:17;;;;;;;5.03;4.20;;;11.20;99.90;;;10.81;100.00;97688.09;4994631;28;20540;-39
2023/09/27 04:00:44;;;;;;;5.25;4.40;;;11.20;99.90;;;10.72;100.00;97681.34;5003009;28;20037;-38
2023/09/27 04:03:10;;;;;;;5.65;4.82;;;11.20;99.90;;;10.82;100.00;97687.16;5001795;28;20329;-37
2023/09/27 04:05:35;;;;;;;5.72;4.53;;;11.20;99.90;;;10.81;100.00;97688.94;5003154;28;20037;-38
2023/09/27 04:08:01;;;;;;;5.65;4.05;;;11.20;99.90;;;10.80;100.00;97687.22;5003050;28;20033;-39
2023/09/27 04:10:28;;;;;;;5.82;4.53;;;11.20;99.90;;;10.77;100.00;97686.47;5004497;28;20140;-39
2023/09/27 04:12:54;;;;;;;7.05;4.13;;;11.20;99.90;;;10.78;100.00;97686.38;5006886;28;20033;-38
2023/09/27 04:15:20;;;;;;;5.70;4.35;;;11.20;99.90;;;10.77;100.00;97682.03;4998920;28;20246;-39
2023/09/27 04:17:46;;;;;;;5.25;4.30;;;11.20;99.90;;;10.76;100.00;97677.66;4999616;28;20029;-38
2023/09/27 04:20:18;;;;;;;4.70;4.20;;;11.20;99.90;;;10.76;100.00;97693.50;4997932;28;20044;-39
2023/09/27 04:22:48;;;;;;;5.15;4.35;;;11.10;99.90;;;10.76;100.00;97696.13;4991778;28;20045;-37
2023/09/27 04:25:15;;;;;;;6.05;4.68;;;11.10;99.90;;;10.75;100.00;97697.06;4999332;28;20394;-38
2023/09/27 04:27:47;;;;;;;4.82;4.10;;;11.10;99.90;;;10.75;100.00;97696.19;4999670;28;20108;-39
2023/09/27 04:30:19;;;;;;;6.65;4.68;;;11.10;99.90;;;10.73;100.00;97696.25;4989717;28;20254;-39
2023/09/27 04:32:47;;;;;;;6.10;4.43;;;11.10;99.90;;;10.72;100.00;97698.94;5010462;28;20078;-39
2023/09/27 04:35:13;;;;;;;6.25;4.78;;;11.10;99.90;;;10.72;100.00;97693.66;5010035;28;20040;-38
2023/09/27 04:37:40;;;;;;;5.70;4.43;;;11.10;99.90;;;10.70;100.00;97704.25;5004655;28;20037;-39
2023/09/27 04:40:11;;;;;;;5.43;4.07;;;11.00;99.90;;;10.67;100.00;97697.28;5003646;28;20095;-38
2023/09/27 04:42:38;;;;;;;4.80;4.05;;;11.00;99.90;;;10.65;100.00;97699.13;5008956;28;20155;-39
2023/09/27 04:45:06;;;;;;;5.88;4.40;;;11.00;99.90;;;10.65;100.00;97700.91;5006093;28;20655;-37
2023/09/27 04:47:32;;;;;;;5.35;4.25;;;11.00;99.90;;;10.67;100.00;97705.22;5001875;28;20273;-38
2023/09/27 04:49:58;;;;;;;6.00;4.55;;;11.00;99.90;;;10.66;100.00;97714.06;5009561;28;20038;-39
2023/09/27 04:52:24;;;;;;;5.45;4.68;;;11.00;99.90;;;10.65;100.00;97716.75;5005962;28;20033;-38
2023/09/27 04:54:57;;;;;;;5.03;4.05;;;11.00;99.90;;;10.68;100.00;97719.28;5010669;28;20040;-38
2023/09/27 04:57:25;;;;;;;5.78;4.53;;;11.00;99.90;;;10.65;100.00;97716.75;5011439;28;20023;-38
2023/09/27 04:59:52;;;;;;;8.27;4.53;;;11.00;99.90;;;10.64;100.00;97723.78;5010182;28;20052;-37
2023/09/27 05:02:21;;;;;;;6.75;4.72;;;11.00;99.90;;;10.63;100.00;97723.84;5009008;28;20083;-39
2023/09/27 05:04:47;;;;;;;5.65;4.53;;;11.00;99.90;;;10.54;100.00;97705.69;5011953;28;20045;-38
2023/09/27 05:07:16;;;;;;;5.78;4.47;;;11.00;99.90;;;10.62;100.00;97716.81;5007926;28;20102;-38
2023/09/27 05:09:41;;;;;;;7.63;4.97;;;11.00;99.90;;;10.62;100.00;97722.09;5001054;28;20025;-38
2023/09/27 05:12:07;;;;;;;6.00;4.47;;;11.00;99.90;;;10.54;100.00;97709.16;5001251;28;20127;-38
2023/09/27 05:14:33;;;;;;;5.00;3.97;;;10.90;99.90;;;10.61;100.00;97720.41;5005553;28;23136;-39
2023/09/27 05:16:58;;;;;;;6.03;4.70;;;11.00;99.90;;;10.62;100.00;97738.81;5006219;28;20025;-38
2023/09/27 05:19:24;;;;;;;6.25;4.57;;;11.00;99.90;;;10.63;100.00;97740.53;5008780;28;20037;-38
2023/09/27 05:21:50;;;;;;;5.43;4.20;;;11.00;99.90;;;10.63;100.00;97745.78;5005195;28;20804;-40
2023/09/27 05:24:15;;;;;;;4.28;3.47;;;11.00;99.90;;;10.61;100.00;97746.75;4997657;28;20033;-39
2023/09/27 05:26:41;;;;;;;6.85;4.03;;;11.00;99.90;;;10.61;100.00;97754.69;5008017;28;20391;-41
2023/09/27 05:29:13;;;;;;;4.90;3.75;;;11.00;99.90;;;10.60;100.00;97758.22;4998059;28;20041;-38
2023/09/27 05:31:40;;;;;;;5.40;3.83;;;11.00;99.90;;;10.55;100.00;97758.38;5005799;28;20119;-38
2023/09/27 05:34:06;;;;;;;5.45;4.10;;;11.00;99.90;;;10.50;100.00;97758.50;5004266;28;20080;-38
2023/09/27 05:36:32;;;;;;;7.65;4.35;;;10.90;99.90;;;10.40;100.00;97743.88;5007729;28;20711;-38
2023/09/27 05:38:58;;;;;;;5.53;3.88;;;10.90;99.90;;;10.45;100.00;97749.88;5007663;28;20048;-38
2023/09/27 05:41:23;;;;;;;5.68;4.18;;;10.90;99.90;;;10.43;100.00;97764.03;5011146;28;20037;-38
2023/09/27 05:43:49;;;;;;;5.57;4.00;;;10.90;99.90;;;10.42;100.00;97757.88;5008339;28;20384;-38
2023/09/27 05:46:15;;;;;;;6.95;4.50;;;10.90;99.90;;;10.40;100.00;97770.22;5006695;28;20051;-40
2023/09/27 05:48:40;;;;;;;5.70;4.53;;;10.80;99.90;;;10.41;100.00;97765.81;5006041;28;20068;-39
2023/09/27 05:51:07;;;;;;;6.15;4.45;;;10.80;99.90;;;10.43;100.00;97767.50;5006294;28;20025;-38
2023/09/27 05:53:33;;;;;;;6.82;4.97;;;10.90;99.90;;;10.42;100.00;97757.88;5006355;28;20033;-38
2023/09/27 05:56:03;;;;;;;7.07;4.43;;;10.90;99.90;;;10.48;100.00;97762.97;5006840;28;20030;-39
2023/09/27 05:58:33;;;;;;;8.00;4.43;;;10.90;99.90;;;10.53;100.00;97756.69;5005116;28;20086;-39
2023/09/27 06:01:00;;;;;;;6.95;4.80;;;10.90;99.90;;;10.54;100.00;97750.50;5002325;28;20584;-38
2023/09/27 06:03:26;;;;;;;6.78;4.03;;;10.90;99.90;;;10.61;100.00;97760.81;5007805;28;20018;-39
2023/09/27 06:05:52;;;;;;;7.00;4.50;;;11.00;99.90;;;10.65;100.00;97764.22;5006533;28;20048;-40
2023/09/27 06:08:17;;;;;;;5.85;4.38;;;11.10;99.90;;;10.69;100.00;97765.84;5007076;28;21518;-39
2023/09/27 06:10:43;;;;;;;5.22;4.00;;;11.10;99.90;;;10.74;100.00;97771.84;5003046;28;20116;-38
2023/09/27 06:13:10;;;;;;;5.13;4.55;;;11.10;99.90;;;10.82;100.00;97768.94;5003799;28;20056;-38
2023/09/27 06:15:36;;;;;;;7.88;5.03;;;11.20;99.90;;;10.85;100.00;97763.56;4992482;28;20032;-38
2023/09/27 06:18:03;;;;;;;7.38;4.47;;;11.30;99.90;;;10.98;100.00;97767.56;5002408;28;20359;-39
2023/09/27 06:20:30;;;;;;;7.65;4.45;;;11.40;99.90;;;11.04;100.00;97769.97;4996641;28;20482;-38
2023/09/27 06:22:58;;;;;;;7.25;4.65;;;11.40;99.90;;;11.08;100.00;97768.09;5006392;28;20072;-39
2023/09/27 06:25:30;;;;;;;6.75;4.90;;;11.50;99.90;;;11.19;100.00;97768.59;5007156;28;20038;-38
2023/09/27 06:27:57;;;;;;;6.45;4.57;;;11.50;99.90;;;11.26;100.00;97775.41;5006553;28;20033;-38
2023/09/27 06:30:23;;;;;;;7.38;4.40;;;11.60;99.90;;;11.25;100.00;97773.69;5000904;28;20091;-39
2023/09/27 06:32:49;;;;;;;6.18;5.07;;;11.70;99.90;;;11.40;100.00;97777.59;5006885;28;20037;-39
2023/09/27 06:35:15;;;;;;;7.63;4.90;;;11.80;99.90;;;11.50;100.00;97779.91;4999368;28;20033;-39
2023/09/27 06:37:48;;;;;;;7.07;4.82;;;11.90;99.90;;;11.57;100.00;97782.28;4988123;28;20673;-37
2023/09/27 06:40:23;;;;;;;6.65;5.10;;;12.00;99.90;;;11.65;100.00;97785.53;5002785;28;20029;-39
2023/09/27 06:42:49;;;;;;;6.45;5.10;;;12.00;99.90;;;11.68;100.00;97771.31;5004673;28;20041;-37
2023/09/27 06:45:15;;;;;;;5.90;5.13;;;12.10;99.90;;;11.80;100.00;97791.19;5002262;28;20472;-37
2023/09/27 06:47:44;;;;;;;7.25;4.93;;;12.20;99.90;;;11.78;100.00;97780.66;5002820;28;20034;-38
2023/09/27 06:50:11;;;;;;;8.93;6.10;;;12.30;99.90;;;11.94;100.00;97786.28;5000663;28;20033;-37
2023/09/27 06:52:39;;;;;;;7.45;5.15;;;12.30;99.90;;;12.03;100.00;97783.31;5001553;28;20048;-37
2023/09/27 06:55:16;;;;;;;7.18;5.75;;;12.40;99.90;;;12.12;100.00;97783.91;5000602;28;20049;-37
2023/09/27 06:57:47;;;;;;;10.55;6.75;;;12.50;99.90;;;12.18;100.00;97786.31;5007510;28;20033;-37
2023/09/27 07:00:18;;;;;;;8.30;6.30;;;12.60;99.90;;;12.25;100.00;97782.50;5005976;28;20037;-38
2023/09/27 07:02:46;;;;;;;8.68;5.97;;;12.60;99.90;;;12.31;100.00;97784.94;5003936;28;20026;-37
2023/09/27 07:05:12;;;;;;;11.35;6.95;;;12.70;99.90;;;12.39;100.00;97782.84;5001356;28;20447;-37
2023/09/27 07:07:38;;;;;;;8.23;6.93;;;12.80;99.90;;;12.45;100.00;97778.25;5000468;28;20083;-39
2023/09/27 07:10:05;;;;;;;9.63;6.30;;;12.90;99.90;;;12.52;100.00;97777.94;4998438;28;20044;-37
2023/09/27 07:12:30;;;;;;;9.05;6.55;;;12.90;99.90;;;12.62;100.00;97782.91;5003958;28;20076;-37
2023/09/27 07:14:57;;;;;;;7.35;6.05;;;13.00;99.90;;;12.69;100.00;97790.53;5007396;28;20029;-37
2023/09/27 07:17:25;;;;;;;8.90;5.93;;;13.10;99.90;;;12.76;100.00;97781.44;5006175;28;20030;-38
2023/09/27 07:19:52;;;;;;;10.70;6.25;;;13.20;99.90;;;12.85;100.00;97784.63;5003231;28;20038;-38
2023/09/27 07:22:19;;;;;;;12.20;6.40;;;13.30;99.90;;;12.95;100.00;97788.63;5005228;28;20061;-37
2023/09/27 07:24:44;;;;;;;9.20;6.18;;;13.30;99.90;;;13.04;100.00;97788.25;5011062;28;20508;-38
2023/09/27 07:27:10;;;;;;;8.75;5.70;;;13.40;99.90;;;13.11;100.00;97787.06;5010408;28;20059;-38
2023/09/27 07:29:36;;;;;;;8.68;5.43;;;13.50;99.90;;;13.20;100.00;97783.19;5007128;28;20116;-38
2023/09/27 07:32:04;;;;;;;6.10;4.80;;;13.60;99.90;;;13.20;100.00;97772.59;5007473;28;20033;-37
2023/09/27 07:34:30;;;;;;;9.65;5.03;;;13.70;99.90;;;13.35;100.00;97782.59;5008803;28;20033;-36
2023/09/27 07:36:56;;;;;;;8.13;5.55;;;13.70;99.90;;;13.47;100.00;97786.50;5007546;28;20568;-37
2023/09/27 07:39:22;;;;;;;7.68;5.00;;;13.80;99.90;;;13.58;100.00;97782.53;5006477;28;20088;-38
2023/09/27 07:41:49;;;;;;;10.00;5.32;;;13.90;99.90;;;13.69;100.00;97788.22;5010728;28;20124;-38
2023/09/27 07:44:17;;;;;;;7.10;5.28;;;14.00;99.90;;;13.75;100.00;97777.38;5011645;28;20485;-37
2023/09/27 07:46:44;;;;;;;7.88;5.45;;;14.10;99.90;;;13.83;100.00;97777.88;5009373;28;20030;-37
2023/09/27 07:49:10;;;;;;;6.40;5.07;;;14.20;99.90;;;13.93;100.00;97773.06;5006664;28;20030;-37
2023/09/27 07:51:36;;;;;;;8.82;5.20;;;14.30;99.90;;;14.03;100.00;97776.13;5003308;28;20033;-39
2023/09/27 07:54:08;;;;;;;7.65;4.65;;;14.40;99.90;;;14.09;100.00;97771.44;5006851;28;20068;-38
2023/09/27 07:56:39;;;;;;;7.75;4.78;;;14.50;99.90;;;14.22;100.00;97786.78;5004576;28;20039;-38
2023/09/27 07:59:08;;;;;;;7.03;4.93;;;14.60;99.90;;;14.13;100.00;97757.09;5005082;28;20030;-38
2023/09/27 08:01:34;;;;;;;6.20;4.15;;;14.60;99.90;;;14.39;100.00;97788.66;5004028;28;20508;-37
2023/09/27 08:04:06;;;;;;;6.38;4.70;;;14.70;99.90;;;14.50;100.00;97784.59;5005912;28;20033;-38
2023/09/27 08:06:33;;;;;;;5.63;4.00;;;14.90;99.90;;;14.59;100.00;97775.38;5001184;28;20517;-39
2023/09/27 08:09:00;;;;;;;5.82;4.32;;;15.00;99.90;;;14.73;100.00;97782.66;5005519;28;20414;-38
2023/09/27 08:11:26;;;;;;;6.50;4.75;;;15.00;99.90;;;14.81;100.00;97774.34;5013013;28;20408;-37
2023/09/27 08:13:53;;;;;;;7.55;5.05;;;15.20;99.90;;;14.97;100.00;97775.31;5008834;28;20565;-38
2023/09/27 08:16:19;;;;;;;6.97;5.15;;;15.30;99.90;;;15.08;100.00;97773.00;5006589;28;20033;-37
2023/09/27 08:18:45;;;;;;;6.78;4.55;;;15.40;99.90;;;15.24;100.00;97767.78;5008762;28;20018;-37
2023/09/27 08:21:11;;;;;;;6.20;4.38;;;15.50;99.90;;;15.41;100.00;97768.72;5009019;28;20390;-39
2023/09/27 08:23:36;;;;;;;6.80;4.40;;;15.60;99.90;;;15.57;100.00;97769.66;4992196;28;20032;-39
2023/09/27 08:26:02;;;;;;;7.57;3.75;;;15.80;99.90;;;15.73;100.00;97768.88;5009409;28;20410;-38
2023/09/27 08:28:31;;;;;;;8.45;3.75;;;16.00;99.90;;;15.86;100.00;97762.00;5010360;28;20040;-37
2023/09/27 08:31:00;;;;;;;7.65;4.35;;;16.10;99.90;;;16.03;100.00;97764.63;5007141;28;20042;-37
2023/09/27 08:33:27;;;;;;;5.53;3.53;;;16.30;99.90;;;16.17;100.00;97755.94;5010750;28;20614;-38
2023/09/27 08:35:53;;;;;;;5.00;3.70;;;16.40;99.90;;;16.29;100.00;97743.75;5010692;28;20025;-37
2023/09/27 08:38:19;;;;;;;5.43;3.30;;;16.50;99.90;;;16.39;100.00;97744.13;5010277;28;20030;-38
2023/09/27 08:40:47;;;;;;;5.35;3.17;;;16.60;99.90;;;16.46;100.00;97742.84;5014148;28;20033;-40
2023/09/27 08:43:15;;;;;;;8.93;4.82;;;16.70;99.90;;;16.68;100.00;97760.28;5012534;28;20056;-38
2023/09/27 08:45:42;;;;;;;6.05;3.53;;;16.80;99.90;;;16.77;100.00;97741.09;5013604;28;20128;-37
2023/09/27 08:48:13;;;;;;;6.45;3.83;;;17.00;99.90;;;16.92;100.00;97750.06;4996541;28;20505;-38
2023/09/27 08:50:40;;;;;;;9.05;3.92;;;17.10;99.90;;;16.99;100.00;97735.44;5015549;28;20041;-39
2023/09/27 08:53:06;;;;;;;7.88;3.22;;;17.10;99.90;;;17.12;100.00;97740.91;5012926;28;20025;-38
2023/09/27 08:55:32;;;;;;;6.68;3.35;;;17.20;99.90;;;17.24;100.00;97744.69;5012562;28;20051;-38
2023/09/27 08:57:59;;;;;;;6.63;3.75;;;17.40;99.90;;;17.29;100.00;97742.59;5012654;28;20057;-37
2023/09/27 09:00:28;;;;;;;5.13;3.65;;;17.40;99.90;;;17.41;100.00;97736.56;5009909;28;20140;-38
2023/09/27 09:02:59;;;;;;;5.32;3.78;;;17.50;99.90;;;17.49;100.00;97734.28;5010452;28;20051;-37
2023/09/27 09:05:28;;;;;;;6.22;3.60;;;17.60;99.90;;;17.54;100.00;97721.53;5013609;28;20034;-38
2023/09/27 09:07:59;;;;;;;4.05;3.30;;;17.70;99.90;;;17.64;100.00;97727.19;5013078;28;21385;-39
2023/09/27 09:10:25;;;;;;;7.13;3.90;;;17.80;99.90;;;17.67;100.00;97723.47;5011350;28;20449;-38
2023/09/27 09:12:52;;;;;;;5.43;3.50;;;17.80;99.90;;;17.72;100.00;97724.06;5010556;28;20041;-38
2023/09/27 09:15:48;;;;;;;4.43;3.00;;;17.80;99.90;;;17.78;100.00;97722.81;5009480;28;20036;-38
2023/09/27 09:18:28;;;;;;;6.88;3.30;;;17.90;99.90;;;17.88;100.00;97716.00;5010567;28;20449;-38
2023/09/27 09:20:59;;;;;;;4.68;2.88;;;18.00;99.90;;;18.02;100.00;97712.50;5009544;28;20040;-38
2023/09/27 09:23:33;;;;;;;5.07;3.30;;;18.10;99.90;;;18.15;100.00;97713.41;5011862;28;20033;-38
2023/09/27 09:26:01;;;;;;;11.80;3.90;;;18.20;99.90;;;18.22;100.00;97708.56;5014696;28;20393;-39
2023/09/27 09:28:27;;;;;;;5.32;3.30;;;18.30;99.90;;;18.28;100.00;97705.50;5008769;28;20438;-37
2023/09/27 09:30:54;;;;;;;4.25;2.80;;;18.40;99.90;;;18.36;100.00;97708.53;5000694;28;20078;-38
2023/09/27 09:33:21;;;;;;;3.97;3.00;;;18.50;99.90;;;18.42;100.00;97708.16;5002322;28;20115;-38
2023/09/27 09:35:47;;;;;;;5.15;3.03;;;18.50;99.90;;;18.46;100.00;97696.31;5011905;28;20132;-37
2023/09/27 09:38:24;;;;;;;4.93;3.13;;;18.60;99.90;;;18.55;100.00;97707.38;5010767;28;20033;-39
2023/09/27 09:40:58;;;;;;;3.28;2.42;;;18.70;99.90;;;18.61;100.00;97693.59;5010876;28;20124;-39
2023/09/27 09:43:35;;;;;;;3.83;2.90;;;18.70;99.90;;;18.66;100.00;97695.03;5010502;28;20044;-39
2023/09/27 09:46:03;;;;;;;5.47;2.65;;;18.80;99.90;;;18.62;100.00;97679.31;5007381;28;20056;-38
2023/09/27 09:48:31;;;;;;;4.50;2.50;;;18.80;99.90;;;18.74;100.00;97689.19;5013447;28;20037;-38
2023/09/27 09:51:06;;;;;;;3.67;2.50;;;18.90;99.90;;;18.83;100.00;97690.44;5008483;28;20030;-37
2023/09/27 09:53:36;;;;;;;3.33;2.67;;;18.90;99.90;;;18.88;100.00;97685.66;5010862;28;20037;-38
2023/09/27 09:56:03;;;;;;;11.50;3.42;;;19.00;99.90;;;18.74;100.00;97673.16;5011066;28;20044;-38
2023/09/27 09:58:35;;;;;;;4.88;2.83;;;19.00;99.90;;;18.85;100.00;97686.69;5014471;28;20429;-37
2023/09/27 10:01:03;;;;;;;6.53;3.28;;;19.00;99.90;;;18.84;100.00;97671.63;4989521;28;20132;-38
2023/09/27 10:03:33;;;;;;;3.88;2.80;;;19.00;99.90;;;18.95;100.00;97672.72;5013691;28;20057;-37
2023/09/27 10:06:01;;;;;;;5.90;3.00;;;19.10;99.90;;;18.98;100.00;97668.03;5011638;28;20033;-38
2023/09/27 10:08:34;;;;;;;6.05;3.45;;;19.10;99.90;;;19.05;100.00;97668.47;4997714;28;20025;-38
2023/09/27 10:11:03;;;;;;;5.55;2.70;;;19.20;99.90;;;19.08;100.00;97673.63;5013036;28;20034;-38
2023/09/27 10:13:39;;;;;;;5.82;3.00;;;19.20;99.90;;;19.20;100.00;97678.16;4998293;28;20033;-37
2023/09/27 10:16:05;;;;;;;5.07;3.13;;;19.30;99.90;;;19.28;100.00;97669.59;5006500;28;20126;-38